Time,TemperatureF,DewpointF,PressureIn,WindDirection,WindDirectionDegrees,WindSpeedMPH,WindSpeedGustMPH,Humidity,HourlyPrecipIn,Conditions,Clouds,dailyrainin,SoftwareType,DateUTC
2013-07-31 00:02:00,75.2,74.6,30.07,East,84,0.0,0.0,98,0.00,,,0.00,Wunderground v.1.15,2013-07-31 05:02:00,
2013-07-31 00:08:00,75.1,74.5,30.07,East,84,0.0,0.0,98,0.00,,,0.00,Wunderground v.1.15,2013-07-31 05:08:00,
2013-07-31 00:13:00,75.0,74.4,30.07,East,84,0.0,0.0,98,0.00,,,0.00,Wunderground v.1.15,2013-07-31 05:13:00,
2013-07-31 00:18:00,75.0,74.4,30.07,East,84,0.0,0.0,98,0.00,,,0.00,Wunderground v.1.15,2013-07-31 05:18:00,
2013-07-31 00:23:00,74.9,74.3,30.07,East,83,0.0,0.0,98,0.00,,,0.00,Wunderground v.1.15,2013-07-31 05:23:00,
2013-07-31 00:32:00,74.8,74.2,30.07,East,83,0.0,0.0,98,0.00,,,0.00,Wunderground v.1.15,2013-07-31 05:32:00,
2013-07-31 00:37:00,74.8,74.2,30.07,East,84,0.0,0.0,98,0.00,,,0.00,Wunderground v.1.15,2013-07-31 05:37:00,
2013-07-31 00:42:00,74.8,74.2,30.07,East,84,0.0,0.0,98,0.00,,,0.00,Wunderground v.1.15,2013-07-31 05:42:00,
2013-07-31 00:47:00,74.8,74.2,30.07,East,84,0.0,0.0,98,0.00,,,0.00,Wunderground v.1.15,2013-07-31 05:47:00,
2013-07-31 00:52:00,74.8,74.2,30.07,East,83,0.0,0.0,98,0.00,,,0.00,Wunderground v.1.15,2013-07-31 05:52:00,
2013-07-31 00:57:00,74.7,74.1,30.07,East,84,0.0,0.0,98,0.00,,,0.00,Wunderground v.1.15,2013-07-31 05:57:00,
2013-07-31 01:07:00,74.6,74.0,30.06,East,83,0.0,0.0,98,0.00,,,0.00,Wunderground v.1.15,2013-07-31 06:07:00,
2013-07-31 01:12:00,74.6,74.0,30.07,East,84,0.0,0.0,98,0.00,,,0.00,Wunderground v.1.15,2013-07-31 06:12:00,
2013-07-31 01:17:00,74.6,74.0,30.06,East,84,0.0,0.0,98,0.00,,,0.00,Wunderground v.1.15,2013-07-31 06:17:00,
2013-07-31 01:27:00,74.6,74.0,30.06,East,84,0.0,0.0,98,0.00,,,0.00,Wunderground v.1.15,2013-07-31 06:27:00,
2013-07-31 01:37:00,74.5,74.2,30.06,East,83,0.0,0.0,99,0.00,,,0.00,Wunderground v.1.15,2013-07-31 06:37:00,
2013-07-31 01:43:00,74.6,74.3,30.06,East,84,0.0,0.0,99,0.00,,,0.00,Wunderground v.1.15,2013-07-31 06:43:00,
2013-07-31 01:48:00,74.6,74.3,30.06,East,83,0.0,0.0,99,0.00,,,0.00,Wunderground v.1.15,2013-07-31 06:48:00,
2013-07-31 01:53:00,74.5,74.2,30.06,East,84,0.0,0.0,99,0.00,,,0.00,Wunderground v.1.15,2013-07-31 06:53:00,
2013-07-31 01:58:00,74.4,74.1,30.06,East,84,0.0,0.0,99,0.00,,,0.00,Wunderground v.1.15,2013-07-31 06:58:00,
2013-07-31 02:07:00,74.4,74.1,30.05,East,84,0.0,0.0,99,0.00,,,0.00,Wunderground v.1.15,2013-07-31 07:07:00,
2013-07-31 02:12:00,74.3,73.7,30.05,East,84,0.0,0.0,98,0.00,,,0.00,Wunderground v.1.15,2013-07-31 07:12:00,
2013-07-31 02:17:00,74.2,73.6,30.06,East,84,0.0,0.0,98,0.00,,,0.00,Wunderground v.1.15,2013-07-31 07:17:00,
2013-07-31 02:22:00,74.2,73.6,30.06,East,84,0.0,0.0,98,0.00,,,0.00,Wunderground v.1.15,2013-07-31 07:22:00,
2013-07-31 02:27:00,74.0,73.4,30.06,East,83,0.0,0.0,98,0.00,,,0.00,Wunderground v.1.15,2013-07-31 07:27:00,
2013-07-31 02:32:00,73.9,73.3,30.06,East,84,0.0,0.0,98,0.00,,,0.00,Wunderground v.1.15,2013-07-31 07:32:00,
2013-07-31 02:37:00,73.9,73.6,30.05,East,83,0.0,0.0,99,0.00,,,0.00,Wunderground v.1.15,2013-07-31 07:37:00,
2013-07-31 02:42:00,73.8,73.5,30.05,East,84,0.0,0.0,99,0.00,,,0.00,Wunderground v.1.15,2013-07-31 07:42:00,
2013-07-31 02:47:00,73.8,73.5,30.05,East,84,0.0,0.0,99,0.00,,,0.00,Wunderground v.1.15,2013-07-31 07:47:00,
2013-07-31 02:52:00,73.8,73.5,30.05,East,84,0.0,0.0,99,0.00,,,0.00,Wunderground v.1.15,2013-07-31 07:52:00,
2013-07-31 02:57:00,73.8,73.5,30.05,East,83,0.0,0.0,99,0.00,,,0.00,Wunderground v.1.15,2013-07-31 07:57:00,
2013-07-31 03:02:00,73.8,73.5,30.05,East,83,0.0,0.0,99,0.00,,,0.00,Wunderground v.1.15,2013-07-31 08:02:00,
2013-07-31 03:07:00,73.7,73.4,30.04,East,84,0.0,0.0,99,0.00,,,0.00,Wunderground v.1.15,2013-07-31 08:07:00,
2013-07-31 03:12:00,73.7,73.4,30.05,East,84,0.0,0.0,99,0.00,,,0.00,Wunderground v.1.15,2013-07-31 08:12:00,
2013-07-31 03:17:00,73.7,73.4,30.05,East,84,0.0,0.0,99,0.00,,,0.00,Wunderground v.1.15,2013-07-31 08:17:00,
2013-07-31 03:22:00,73.7,73.4,30.05,East,83,0.0,0.0,99,0.00,,,0.00,Wunderground v.1.15,2013-07-31 08:22:00,
2013-07-31 03:27:00,73.8,73.5,30.05,East,84,0.0,0.0,99,0.00,,,0.00,Wunderground v.1.15,2013-07-31 08:27:00,
2013-07-31 03:32:00,73.7,73.4,30.05,East,84,0.0,0.0,99,0.00,,,0.00,Wunderground v.1.15,2013-07-31 08:32:00,
2013-07-31 03:37:00,73.8,73.5,30.05,East,84,0.0,0.0,99,0.00,,,0.00,Wunderground v.1.15,2013-07-31 08:37:00,
2013-07-31 03:43:00,73.8,73.5,30.05,East,84,0.0,0.0,99,0.00,,,0.00,Wunderground v.1.15,2013-07-31 08:43:00,
2013-07-31 03:48:00,73.7,73.4,30.05,East,84,0.0,0.0,99,0.00,,,0.00,Wunderground v.1.15,2013-07-31 08:48:00,
2013-07-31 03:53:00,73.7,73.4,30.05,East,84,0.0,0.0,99,0.00,,,0.00,Wunderground v.1.15,2013-07-31 08:53:00,
2013-07-31 04:03:00,73.9,73.6,30.05,East,83,0.0,0.0,99,0.00,,,0.00,Wunderground v.1.15,2013-07-31 09:03:00,
2013-07-31 04:08:00,73.9,73.6,30.05,East,83,0.0,0.0,99,0.00,,,0.00,Wunderground v.1.15,2013-07-31 09:08:00,
2013-07-31 04:18:00,73.9,73.6,30.05,East,83,0.0,0.0,99,0.00,,,0.00,Wunderground v.1.15,2013-07-31 09:18:00,
2013-07-31 04:23:00,73.9,73.6,30.05,East,83,0.0,0.0,99,0.00,,,0.00,Wunderground v.1.15,2013-07-31 09:23:00,
2013-07-31 04:28:00,73.9,73.6,30.05,East,83,0.0,0.0,99,0.00,,,0.00,Wunderground v.1.15,2013-07-31 09:28:00,
2013-07-31 04:33:00,73.9,73.6,30.05,East,84,0.0,0.0,99,0.00,,,0.00,Wunderground v.1.15,2013-07-31 09:33:00,
2013-07-31 04:42:00,73.7,73.4,30.05,East,84,0.0,0.0,99,0.00,,,0.00,Wunderground v.1.15,2013-07-31 09:42:00,
2013-07-31 04:47:00,73.7,73.4,30.05,East,84,0.0,0.0,99,0.00,,,0.00,Wunderground v.1.15,2013-07-31 09:47:00,
2013-07-31 04:52:00,73.7,73.4,30.05,East,84,0.0,0.0,99,0.00,,,0.00,Wunderground v.1.15,2013-07-31 09:52:00,
2013-07-31 04:57:00,73.8,73.5,30.05,East,83,0.0,0.0,99,0.00,,,0.00,Wunderground v.1.15,2013-07-31 09:57:00,
2013-07-31 05:02:00,73.8,73.5,30.05,East,84,0.0,0.0,99,0.00,,,0.00,Wunderground v.1.15,2013-07-31 10:02:00,
2013-07-31 05:08:00,73.8,73.5,30.05,East,84,0.0,0.0,99,0.00,,,0.00,Wunderground v.1.15,2013-07-31 10:08:00,
2013-07-31 05:13:00,73.8,73.5,30.05,East,84,0.0,0.0,99,0.00,,,0.00,Wunderground v.1.15,2013-07-31 10:13:00,
2013-07-31 05:22:00,73.8,73.5,30.05,East,84,0.0,0.0,99,0.00,,,0.00,Wunderground v.1.15,2013-07-31 10:22:00,
2013-07-31 05:27:00,73.9,73.6,30.05,East,84,0.0,0.0,99,0.00,,,0.00,Wunderground v.1.15,2013-07-31 10:27:00,
2013-07-31 05:32:00,74.0,73.7,30.05,East,84,0.0,0.0,99,0.00,,,0.00,Wunderground v.1.15,2013-07-31 10:32:00,
2013-07-31 05:42:00,74.2,73.9,30.06,East,84,0.0,0.0,99,0.00,,,0.00,Wunderground v.1.15,2013-07-31 10:42:00,
2013-07-31 05:48:00,74.3,74.0,30.06,East,83,0.0,0.0,99,0.00,,,0.00,Wunderground v.1.15,2013-07-31 10:48:00,
2013-07-31 05:53:00,74.3,74.0,30.05,East,83,0.0,0.0,99,0.00,,,0.00,Wunderground v.1.15,2013-07-31 10:53:00,
2013-07-31 05:58:00,74.4,74.1,30.05,East,84,0.0,0.0,99,0.00,,,0.00,Wunderground v.1.15,2013-07-31 10:58:00,
2013-07-31 06:03:00,74.6,74.3,30.06,East,84,0.0,0.0,99,0.00,,,0.00,Wunderground v.1.15,2013-07-31 11:03:00,
2013-07-31 06:12:00,74.7,74.4,30.06,East,83,0.0,0.0,99,0.00,,,0.00,Wunderground v.1.15,2013-07-31 11:12:00,
2013-07-31 06:17:00,74.7,74.4,30.06,East,83,0.0,0.0,99,0.00,,,0.00,Wunderground v.1.15,2013-07-31 11:17:00,
2013-07-31 06:27:00,74.7,74.4,30.06,East,83,0.0,0.0,99,0.00,,,0.00,Wunderground v.1.15,2013-07-31 11:27:00,
2013-07-31 06:32:00,74.8,74.5,30.07,East,83,0.0,0.0,99,0.00,,,0.00,Wunderground v.1.15,2013-07-31 11:32:00,
2013-07-31 06:37:00,74.8,74.5,30.07,East,84,0.0,0.0,99,0.00,,,0.00,Wunderground v.1.15,2013-07-31 11:37:00,
2013-07-31 06:43:00,74.9,74.6,30.07,East,84,0.0,0.0,99,0.00,,,0.00,Wunderground v.1.15,2013-07-31 11:43:00,
2013-07-31 06:48:00,75.0,74.7,30.07,East,84,0.0,0.0,99,0.00,,,0.00,Wunderground v.1.15,2013-07-31 11:48:00,
2013-07-31 06:57:00,75.3,75.0,30.07,East,84,0.0,0.0,99,0.00,,,0.00,Wunderground v.1.15,2013-07-31 11:57:00,
2013-07-31 07:02:00,75.5,75.2,30.07,East,84,0.0,0.0,99,0.00,,,0.00,Wunderground v.1.15,2013-07-31 12:02:00,
2013-07-31 07:08:00,75.6,75.3,30.07,East,84,0.0,0.0,99,0.00,,,0.00,Wunderground v.1.15,2013-07-31 12:08:00,
2013-07-31 07:13:00,75.7,75.7,30.07,East,83,0.0,0.0,100,0.00,,,0.00,Wunderground v.1.15,2013-07-31 12:13:00,
2013-07-31 07:18:00,75.9,75.9,30.07,East,84,0.0,0.0,100,0.00,,,0.00,Wunderground v.1.15,2013-07-31 12:18:00,
2013-07-31 07:27:00,76.2,75.9,30.07,East,83,0.0,0.0,99,0.00,,,0.00,Wunderground v.1.15,2013-07-31 12:27:00,
2013-07-31 07:32:00,76.3,76.0,30.08,East,84,0.0,0.0,99,0.00,,,0.00,Wunderground v.1.15,2013-07-31 12:32:00,
2013-07-31 07:42:00,76.2,75.9,30.08,East,84,0.0,0.0,99,0.00,,,0.00,Wunderground v.1.15,2013-07-31 12:42:00,
2013-07-31 07:47:00,76.3,76.0,30.08,East,83,0.0,0.0,99,0.00,,,0.00,Wunderground v.1.15,2013-07-31 12:47:00,
2013-07-31 07:52:00,76.3,76.0,30.08,East,83,0.0,0.0,99,0.00,,,0.00,Wunderground v.1.15,2013-07-31 12:52:00,
2013-07-31 07:58:00,76.3,76.0,30.08,East,84,0.0,0.0,99,0.00,,,0.00,Wunderground v.1.15,2013-07-31 12:58:00,
2013-07-31 08:03:00,76.4,76.1,30.08,East,83,0.0,0.0,99,0.00,,,0.00,Wunderground v.1.15,2013-07-31 13:03:00,
2013-07-31 08:12:00,76.9,76.6,30.08,East,83,0.0,0.0,99,0.00,,,0.00,Wunderground v.1.15,2013-07-31 13:12:00,
2013-07-31 08:17:00,77.0,76.7,30.08,East,84,0.0,0.0,99,0.00,,,0.00,Wunderground v.1.15,2013-07-31 13:17:00,
2013-07-31 08:22:00,77.2,76.9,30.08,East,84,0.0,0.0,99,0.00,,,0.00,Wunderground v.1.15,2013-07-31 13:22:00,
2013-07-31 08:32:00,77.4,77.1,30.09,East,84,0.0,0.0,99,0.00,,,0.00,Wunderground v.1.15,2013-07-31 13:32:00,
2013-07-31 08:38:00,77.4,77.1,30.09,East,83,0.0,0.0,99,0.00,,,0.00,Wunderground v.1.15,2013-07-31 13:38:00,
2013-07-31 08:43:00,77.5,77.2,30.08,East,83,0.0,0.0,99,0.00,,,0.00,Wunderground v.1.15,2013-07-31 13:43:00,
2013-07-31 08:48:00,77.6,77.3,30.08,East,83,0.0,0.0,99,0.00,,,0.00,Wunderground v.1.15,2013-07-31 13:48:00,
2013-07-31 08:53:00,77.7,77.1,30.09,East,84,0.0,0.0,98,0.00,,,0.00,Wunderground v.1.15,2013-07-31 13:53:00,
2013-07-31 09:02:00,77.9,77.3,30.09,East,84,0.0,0.0,98,0.00,,,0.00,Wunderground v.1.15,2013-07-31 14:02:00,
2013-07-31 09:08:00,78.0,77.4,30.09,East,84,0.0,0.0,98,0.00,,,0.00,Wunderground v.1.15,2013-07-31 14:08:00,
2013-07-31 09:13:00,78.0,77.1,30.09,ENE,66,0.0,0.0,97,0.00,,,0.00,Wunderground v.1.15,2013-07-31 14:13:00,
2013-07-31 09:18:00,78.1,77.2,30.09,ENE,66,0.0,0.0,97,0.00,,,0.00,Wunderground v.1.15,2013-07-31 14:18:00,
2013-07-31 09:23:00,78.3,77.4,30.09,South,181,0.0,0.0,97,0.00,,,0.00,Wunderground v.1.15,2013-07-31 14:23:00,
2013-07-31 09:27:00,78.4,77.2,30.09,South,180,0.0,0.0,96,0.00,,,0.00,Wunderground v.1.15,2013-07-31 14:27:00,
2013-07-31 09:38:00,79.0,77.8,30.09,South,181,0.0,0.0,96,0.00,,,0.00,Wunderground v.1.15,2013-07-31 14:38:00,
2013-07-31 09:43:00,79.2,77.3,30.09,ENE,67,0.0,0.0,94,0.00,,,0.00,Wunderground v.1.15,2013-07-31 14:43:00,
2013-07-31 09:48:00,79.5,77.6,30.09,ENE,61,0.0,0.0,94,0.00,,,0.00,Wunderground v.1.15,2013-07-31 14:48:00,
2013-07-31 09:53:00,79.7,77.5,30.09,NE,35,0.0,0.0,93,0.00,,,0.00,Wunderground v.1.15,2013-07-31 14:53:00,
2013-07-31 09:58:00,80.0,77.8,30.09,NE,34,0.0,0.0,93,0.00,,,0.00,Wunderground v.1.15,2013-07-31 14:58:00,
2013-07-31 10:08:00,80.7,77.8,30.09,NNW,342,0.0,0.0,91,0.00,,,0.00,Wunderground v.1.15,2013-07-31 15:08:00,
2013-07-31 10:13:00,81.1,77.9,30.09,NNW,342,0.0,0.0,90,0.00,,,0.00,Wunderground v.1.15,2013-07-31 15:13:00,
2013-07-31 10:18:00,81.5,77.6,30.09,NNW,342,0.0,0.0,88,0.00,,,0.00,Wunderground v.1.15,2013-07-31 15:18:00,
2013-07-31 10:28:00,83.5,78.5,30.09,ENE,69,0.0,0.0,85,0.00,,,0.00,Wunderground v.1.15,2013-07-31 15:28:00,
2013-07-31 10:38:00,85.2,78.3,30.09,ENE,57,0.0,0.0,80,0.00,,,0.00,Wunderground v.1.15,2013-07-31 15:38:00,
2013-07-31 10:43:00,85.4,78.1,30.09,South,181,0.0,0.0,79,0.00,,,0.00,Wunderground v.1.15,2013-07-31 15:43:00,
2013-07-31 10:48:00,85.3,78.4,30.09,South,181,0.0,0.0,80,0.00,,,0.00,Wunderground v.1.15,2013-07-31 15:48:00,
2013-07-31 10:53:00,85.2,77.9,30.09,South,181,0.0,0.0,79,0.00,,,0.00,Wunderground v.1.15,2013-07-31 15:53:00,
2013-07-31 10:57:00,85.4,78.1,30.09,South,180,0.0,0.0,79,0.00,,,0.00,Wunderground v.1.15,2013-07-31 15:57:00,
2013-07-31 11:02:00,85.7,79.2,30.09,South,180,0.0,0.0,81,0.00,,,0.00,Wunderground v.1.15,2013-07-31 16:02:00,
2013-07-31 11:08:00,85.8,78.5,30.09,South,181,0.0,0.0,79,0.00,,,0.00,Wunderground v.1.15,2013-07-31 16:08:00,
2013-07-31 11:13:00,85.7,78.8,30.09,South,181,0.0,0.0,80,0.00,,,0.00,Wunderground v.1.15,2013-07-31 16:13:00,
2013-07-31 11:17:00,85.6,77.6,30.09,ENE,61,0.0,0.0,77,0.00,,,0.00,Wunderground v.1.15,2013-07-31 16:17:00,
2013-07-31 11:22:00,85.9,77.8,30.08,ENE,60,0.0,0.0,77,0.00,,,0.00,Wunderground v.1.15,2013-07-31 16:22:00,
2013-07-31 11:27:00,86.6,78.9,30.08,ENE,61,0.0,0.0,78,0.00,,,0.00,Wunderground v.1.15,2013-07-31 16:27:00,
2013-07-31 11:32:00,87.5,79.4,30.08,NE,39,0.0,0.0,77,0.00,,,0.00,Wunderground v.1.15,2013-07-31 16:32:00,
2013-07-31 11:42:00,88.2,78.4,30.07,NNE,12,0.0,0.0,73,0.00,,,0.00,Wunderground v.1.15,2013-07-31 16:42:00,
2013-07-31 11:47:00,89.0,78.8,30.07,NNE,12,0.0,0.0,72,0.00,,,0.00,Wunderground v.1.15,2013-07-31 16:47:00,
2013-07-31 11:52:00,89.4,78.8,30.07,North,11,0.0,0.0,71,0.00,,,0.00,Wunderground v.1.15,2013-07-31 16:52:00,
2013-07-31 11:57:00,89.7,79.5,30.07,North,11,0.0,0.0,72,0.00,,,0.00,Wunderground v.1.15,2013-07-31 16:57:00,
2013-07-31 12:02:00,90.2,79.1,30.07,NNE,12,0.0,0.0,70,0.00,,,0.00,Wunderground v.1.15,2013-07-31 17:02:00,
2013-07-31 12:07:00,90.2,79.1,30.07,NNE,22,0.0,0.0,70,0.00,,,0.00,Wunderground v.1.15,2013-07-31 17:07:00,
2013-07-31 12:17:00,89.1,78.9,30.06,SSE,168,1.0,1.0,72,0.00,,,0.00,Wunderground v.1.15,2013-07-31 17:17:00,
2013-07-31 12:22:00,89.5,79.3,30.06,NNE,12,1.0,1.0,72,0.00,,,0.00,Wunderground v.1.15,2013-07-31 17:22:00,
2013-07-31 12:27:00,89.6,79.4,30.06,North,11,1.0,1.0,72,0.00,,,0.00,Wunderground v.1.15,2013-07-31 17:27:00,
2013-07-31 12:32:00,89.5,78.8,30.06,North,360,0.0,0.0,71,0.00,,,0.00,Wunderground v.1.15,2013-07-31 17:32:00,
2013-07-31 12:38:00,89.0,79.2,30.06,SE,126,0.0,0.0,73,0.00,,,0.00,Wunderground v.1.15,2013-07-31 17:38:00,
2013-07-31 12:48:00,88.8,79.0,30.06,SE,126,0.0,0.0,73,0.00,,,0.00,Wunderground v.1.15,2013-07-31 17:48:00,
2013-07-31 12:53:00,88.9,79.9,30.06,SE,127,0.0,0.0,75,0.00,,,0.00,Wunderground v.1.15,2013-07-31 17:53:00,
2013-07-31 12:58:00,88.4,78.2,30.05,SSE,147,0.0,1.0,72,0.00,,,0.00,Wunderground v.1.15,2013-07-31 17:58:00,
2013-07-31 13:03:00,88.1,77.9,30.05,SSE,147,1.0,1.0,72,0.00,,,0.00,Wunderground v.1.15,2013-07-31 18:03:00,
2013-07-31 13:12:00,87.5,77.8,30.04,SSE,147,0.0,0.0,73,0.00,,,0.00,Wunderground v.1.15,2013-07-31 18:12:00,
2013-07-31 13:22:00,88.2,79.7,30.04,SSE,168,1.0,1.0,76,0.00,,,0.00,Wunderground v.1.15,2013-07-31 18:22:00,
2013-07-31 13:27:00,89.8,80.0,30.04,SE,138,1.0,1.0,73,0.00,,,0.00,Wunderground v.1.15,2013-07-31 18:27:00,
2013-07-31 13:32:00,91.2,79.6,30.03,NNE,32,0.0,0.0,69,0.00,,,0.00,Wunderground v.1.15,2013-07-31 18:32:00,
2013-07-31 13:38:00,91.8,79.3,30.03,ESE,117,0.0,0.0,67,0.00,,,0.00,Wunderground v.1.15,2013-07-31 18:38:00,
2013-07-31 13:43:00,92.1,79.6,30.03,NE,41,1.0,2.0,67,0.00,,,0.00,Wunderground v.1.15,2013-07-31 18:43:00,
2013-07-31 13:52:00,91.8,79.7,30.02,North,5,1.0,1.0,68,0.00,,,0.00,Wunderground v.1.15,2013-07-31 18:52:00,
2013-07-31 13:57:00,91.5,79.9,30.02,North,360,1.0,1.0,69,0.00,,,0.00,Wunderground v.1.15,2013-07-31 18:57:00,
2013-07-31 14:02:00,91.1,79.1,30.02,North,360,1.0,2.0,68,0.00,,,0.00,Wunderground v.1.15,2013-07-31 19:02:00,
2013-07-31 14:08:00,91.3,78.3,30.02,North,360,1.0,2.0,66,0.00,,,0.00,Wunderground v.1.15,2013-07-31 19:08:00,
2013-07-31 14:13:00,91.8,79.7,30.02,North,355,1.0,1.0,68,0.00,,,0.00,Wunderground v.1.15,2013-07-31 19:13:00,
2013-07-31 14:22:00,92.5,79.9,30.01,NNE,14,1.0,3.0,67,0.00,,,0.00,Wunderground v.1.15,2013-07-31 19:22:00,
2013-07-31 14:27:00,91.7,78.3,30.01,North,5,1.0,3.0,65,0.00,,,0.00,Wunderground v.1.15,2013-07-31 19:27:00,
2013-07-31 14:32:00,91.7,79.2,30.01,North,9,2.0,2.0,67,0.00,,,0.00,Wunderground v.1.15,2013-07-31 19:32:00,
2013-07-31 14:38:00,92.4,79.8,30.01,North,9,1.0,2.0,67,0.00,,,0.00,Wunderground v.1.15,2013-07-31 19:38:00,
2013-07-31 14:43:00,92.3,78.8,30.01,North,9,0.0,0.0,65,0.00,,,0.00,Wunderground v.1.15,2013-07-31 19:43:00,
2013-07-31 14:53:00,91.8,77.9,30.00,North,9,1.0,1.0,64,0.00,,,0.00,Wunderground v.1.15,2013-07-31 19:53:00,
2013-07-31 14:58:00,92.4,79.8,30.00,NNE,13,1.0,1.0,67,0.00,,,0.00,Wunderground v.1.15,2013-07-31 19:58:00,
2013-07-31 15:03:00,92.6,79.6,30.00,NNW,329,1.0,1.0,66,0.00,,,0.00,Wunderground v.1.15,2013-07-31 20:03:00,
2013-07-31 15:12:00,92.9,79.9,30.00,NNW,329,0.0,0.0,66,0.00,,,0.00,Wunderground v.1.15,2013-07-31 20:12:00,
2013-07-31 15:17:00,93.1,80.5,30.00,NNW,329,0.0,0.0,67,0.00,,,0.00,Wunderground v.1.15,2013-07-31 20:17:00,
2013-07-31 15:27:00,93.7,79.2,30.00,NNW,329,0.0,0.0,63,0.00,,,0.00,Wunderground v.1.15,2013-07-31 20:27:00,
2013-07-31 15:32:00,93.9,78.9,30.00,NNW,329,0.0,0.0,62,0.00,,,0.00,Wunderground v.1.15,2013-07-31 20:32:00,
2013-07-31 15:38:00,93.8,77.8,29.99,NNW,329,0.0,0.0,60,0.00,,,0.00,Wunderground v.1.15,2013-07-31 20:38:00,
2013-07-31 15:43:00,93.9,79.4,29.99,NNW,329,0.0,0.0,63,0.00,,,0.00,Wunderground v.1.15,2013-07-31 20:43:00,
2013-07-31 15:48:00,93.3,77.8,29.99,NNE,15,1.0,1.0,61,0.00,,,0.00,Wunderground v.1.15,2013-07-31 20:48:00,
2013-07-31 15:58:00,93.1,80.0,29.99,NNE,15,0.0,1.0,66,0.00,,,0.00,Wunderground v.1.15,2013-07-31 20:58:00,
2013-07-31 16:03:00,92.8,78.3,29.99,South,171,0.0,0.0,63,0.00,,,0.00,Wunderground v.1.15,2013-07-31 21:03:00,
2013-07-31 16:08:00,92.7,79.7,29.99,West,269,0.0,1.0,66,0.00,,,0.00,Wunderground v.1.15,2013-07-31 21:08:00,
2013-07-31 16:13:00,92.8,78.8,29.99,West,269,0.0,0.0,64,0.00,,,0.00,Wunderground v.1.15,2013-07-31 21:13:00,
2013-07-31 16:18:00,92.4,78.0,29.98,West,269,0.0,1.0,63,0.00,,,0.00,Wunderground v.1.15,2013-07-31 21:18:00,
2013-07-31 16:23:00,92.0,78.1,29.98,West,269,1.0,1.0,64,0.00,,,0.00,Wunderground v.1.15,2013-07-31 21:23:00,
2013-07-31 16:32:00,91.1,78.2,29.97,West,268,1.0,1.0,66,0.00,,,0.00,Wunderground v.1.15,2013-07-31 21:32:00,
2013-07-31 16:37:00,90.3,78.7,29.97,West,268,1.0,1.0,69,0.00,,,0.00,Wunderground v.1.15,2013-07-31 21:37:00,
2013-07-31 16:42:00,90.2,79.1,29.97,West,269,0.0,0.0,70,0.00,,,0.00,Wunderground v.1.15,2013-07-31 21:42:00,
2013-07-31 16:47:00,90.2,79.1,29.97,West,269,0.0,0.0,70,0.00,,,0.00,Wunderground v.1.15,2013-07-31 21:47:00,
2013-07-31 16:52:00,89.9,78.8,29.96,West,269,0.0,0.0,70,0.00,,,0.00,Wunderground v.1.15,2013-07-31 21:52:00,
2013-07-31 16:58:00,89.6,78.1,29.96,West,269,0.0,0.0,69,0.00,,,0.00,Wunderground v.1.15,2013-07-31 21:58:00,
2013-07-31 17:03:00,89.3,79.5,29.95,West,269,0.0,0.0,73,0.00,,,0.00,Wunderground v.1.15,2013-07-31 22:03:00,
2013-07-31 17:12:00,87.8,78.1,29.96,NNE,13,1.0,1.0,73,0.00,,,0.00,Wunderground v.1.15,2013-07-31 22:12:00,
2013-07-31 17:17:00,86.7,76.6,29.97,NNE,15,2.0,2.0,72,0.00,,,0.00,Wunderground v.1.15,2013-07-31 22:17:00,
2013-07-31 17:22:00,85.7,76.0,29.97,NNE,13,2.0,2.0,73,0.00,,,0.00,Wunderground v.1.15,2013-07-31 22:22:00,
2013-07-31 17:27:00,85.3,76.5,29.97,North,360,2.0,2.0,75,0.00,,,0.00,Wunderground v.1.15,2013-07-31 22:27:00,
2013-07-31 17:38:00,84.8,76.0,29.97,East,81,1.0,2.0,75,0.00,,,0.00,Wunderground v.1.15,2013-07-31 22:38:00,
2013-07-31 17:43:00,84.6,76.2,29.97,ESE,115,1.0,5.0,76,0.00,,,0.00,Wunderground v.1.15,2013-07-31 22:43:00,
2013-07-31 17:48:00,84.1,76.1,29.97,SSE,157,2.0,5.0,77,0.00,,,0.00,Wunderground v.1.15,2013-07-31 22:48:00,
2013-07-31 17:53:00,83.4,75.0,29.98,SSE,159,2.0,2.0,76,0.00,,,0.00,Wunderground v.1.15,2013-07-31 22:53:00,
2013-07-31 18:03:00,82.7,75.1,29.97,East,90,1.0,1.0,78,0.00,,,0.00,Wunderground v.1.15,2013-07-31 23:03:00,
2013-07-31 18:12:00,82.7,75.9,29.97,East,94,0.0,0.0,80,0.00,,,0.00,Wunderground v.1.15,2013-07-31 23:12:00,
2013-07-31 18:17:00,82.7,75.9,29.96,East,92,0.0,0.0,80,0.00,,,0.00,Wunderground v.1.15,2013-07-31 23:17:00,
2013-07-31 18:22:00,82.8,75.2,29.97,East,93,0.0,1.0,78,0.00,,,0.00,Wunderground v.1.15,2013-07-31 23:22:00,
2013-07-31 18:27:00,82.8,75.6,29.98,East,93,0.0,1.0,79,0.00,,,0.00,Wunderground v.1.15,2013-07-31 23:27:00,
2013-07-31 18:32:00,82.8,75.2,29.97,East,87,0.0,0.0,78,0.00,,,0.00,Wunderground v.1.15,2013-07-31 23:32:00,
2013-07-31 18:38:00,82.5,75.3,29.97,East,88,0.0,0.0,79,0.00,,,0.00,Wunderground v.1.15,2013-07-31 23:38:00,
2013-07-31 18:43:00,82.3,75.5,29.97,East,87,0.0,0.0,80,0.00,,,0.00,Wunderground v.1.15,2013-07-31 23:43:00,
2013-07-31 18:48:00,82.2,75.4,29.97,East,88,0.0,0.0,80,0.00,,,0.00,Wunderground v.1.15,2013-07-31 23:48:00,
2013-07-31 18:53:00,82.0,75.6,29.99,East,88,0.0,1.0,81,0.00,,,0.00,Wunderground v.1.15,2013-07-31 23:53:00,
2013-07-31 18:58:00,81.6,76.3,29.99,WNW,302,0.0,2.0,84,0.00,,,0.00,Wunderground v.1.15,2013-07-31 23:58:00,
2013-07-31 19:03:00,81.2,75.9,29.99,SE,126,1.0,1.0,84,0.00,,,0.00,Wunderground v.1.15,2013-08-01 00:03:00,
2013-07-31 19:12:00,81.2,75.9,29.98,East,94,0.0,0.0,84,0.00,,,0.00,Wunderground v.1.15,2013-08-01 00:12:00,
2013-07-31 19:17:00,81.5,76.6,29.99,East,94,0.0,0.0,85,0.00,,,0.00,Wunderground v.1.15,2013-08-01 00:17:00,
2013-07-31 19:22:00,81.4,76.5,29.99,East,94,0.0,1.0,85,0.00,,,0.00,Wunderground v.1.15,2013-08-01 00:22:00,
2013-07-31 19:27:00,81.3,76.4,29.99,East,94,0.0,1.0,85,0.00,,,0.00,Wunderground v.1.15,2013-08-01 00:27:00,
2013-07-31 19:32:00,81.1,75.8,29.99,East,94,0.0,0.0,84,0.00,,,0.00,Wunderground v.1.15,2013-08-01 00:32:00,
2013-07-31 19:37:00,80.9,75.6,29.99,East,94,0.0,0.0,84,0.00,,,0.00,Wunderground v.1.15,2013-08-01 00:37:00,
2013-07-31 19:42:00,80.7,75.8,29.99,East,94,0.0,0.0,85,0.00,,,0.00,Wunderground v.1.15,2013-08-01 00:42:00,
2013-07-31 19:47:00,80.6,75.7,29.99,East,94,0.0,0.0,85,0.00,,,0.00,Wunderground v.1.15,2013-08-01 00:47:00,
2013-07-31 19:52:00,80.3,75.4,29.98,East,94,0.0,0.0,85,0.00,,,0.00,Wunderground v.1.15,2013-08-01 00:52:00,
2013-07-31 19:57:00,79.9,75.7,29.98,East,94,0.0,0.0,87,0.00,,,0.00,Wunderground v.1.15,2013-08-01 00:57:00,
2013-07-31 20:02:00,79.6,75.0,29.98,East,94,0.0,0.0,86,0.00,,,0.00,Wunderground v.1.15,2013-08-01 01:02:00,
2013-07-31 20:07:00,79.4,75.2,29.98,East,94,0.0,0.0,87,0.00,,,0.00,Wunderground v.1.15,2013-08-01 01:07:00,
2013-07-31 20:17:00,79.1,75.2,29.98,East,94,0.0,0.0,88,0.00,,,0.00,Wunderground v.1.15,2013-08-01 01:17:00,
2013-07-31 20:22:00,79.1,75.2,29.98,East,94,0.0,0.0,88,0.00,,,0.00,Wunderground v.1.15,2013-08-01 01:22:00,
2013-07-31 20:27:00,79.1,75.6,29.98,East,94,0.0,0.0,89,0.00,,,0.00,Wunderground v.1.15,2013-08-01 01:27:00,
2013-07-31 20:32:00,78.9,75.4,29.99,East,94,0.0,0.0,89,0.00,,,0.00,Wunderground v.1.15,2013-08-01 01:32:00,
2013-07-31 20:38:00,78.8,75.6,29.99,East,94,0.0,0.0,90,0.00,,,0.00,Wunderground v.1.15,2013-08-01 01:38:00,
2013-07-31 20:48:00,78.6,75.8,29.99,East,94,0.0,0.0,91,0.00,,,0.00,Wunderground v.1.15,2013-08-01 01:48:00,
2013-07-31 20:53:00,78.5,75.7,29.99,East,94,0.0,0.0,91,0.00,,,0.00,Wunderground v.1.15,2013-08-01 01:53:00,
2013-07-31 20:58:00,78.3,75.5,29.99,East,94,0.0,0.0,91,0.00,,,0.00,Wunderground v.1.15,2013-08-01 01:58:00,
2013-07-31 21:03:00,78.3,75.8,29.99,East,94,0.0,0.0,92,0.00,,,0.00,Wunderground v.1.15,2013-08-01 02:03:00,
2013-07-31 21:08:00,78.2,75.7,29.99,East,94,0.0,0.0,92,0.00,,,0.00,Wunderground v.1.15,2013-08-01 02:08:00,
2013-07-31 21:18:00,77.9,75.7,30.00,East,94,0.0,0.0,93,0.00,,,0.00,Wunderground v.1.15,2013-08-01 02:18:00,
2013-07-31 21:23:00,77.8,75.6,29.99,East,94,0.0,0.0,93,0.00,,,0.00,Wunderground v.1.15,2013-08-01 02:23:00,
2013-07-31 21:28:00,77.7,75.5,30.00,East,94,0.0,0.0,93,0.00,,,0.00,Wunderground v.1.15,2013-08-01 02:28:00,
2013-07-31 21:33:00,77.5,75.3,30.00,East,94,0.0,0.0,93,0.00,,,0.00,Wunderground v.1.15,2013-08-01 02:33:00,
2013-07-31 21:38:00,77.3,75.4,30.00,East,94,0.0,0.0,94,0.00,,,0.00,Wunderground v.1.15,2013-08-01 02:38:00,
2013-07-31 21:48:00,77.1,75.2,30.00,East,94,0.0,0.0,94,0.00,,,0.00,Wunderground v.1.15,2013-08-01 02:48:00,
2013-07-31 21:53:00,77.1,75.2,30.00,East,94,0.0,0.0,94,0.00,,,0.00,Wunderground v.1.15,2013-08-01 02:53:00,
2013-07-31 21:58:00,77.1,75.2,29.99,East,94,0.0,0.0,94,0.00,,,0.00,Wunderground v.1.15,2013-08-01 02:58:00,
2013-07-31 22:03:00,77.1,75.6,29.99,East,94,0.0,0.0,95,0.00,,,0.00,Wunderground v.1.15,2013-08-01 03:03:00,
2013-07-31 22:13:00,76.9,75.4,30.00,East,94,0.0,0.0,95,0.00,,,0.00,Wunderground v.1.15,2013-08-01 03:13:00,
2013-07-31 22:18:00,76.9,75.4,30.00,East,94,0.0,0.0,95,0.00,,,0.00,Wunderground v.1.15,2013-08-01 03:18:00,
2013-07-31 22:23:00,76.7,75.2,30.00,East,94,0.0,0.0,95,0.00,,,0.00,Wunderground v.1.15,2013-08-01 03:23:00,
2013-07-31 22:28:00,76.6,75.1,29.99,East,94,0.0,0.0,95,0.00,,,0.00,Wunderground v.1.15,2013-08-01 03:28:00,
2013-07-31 22:33:00,76.5,75.0,29.99,East,94,0.0,0.0,95,0.00,,,0.00,Wunderground v.1.15,2013-08-01 03:33:00,
2013-07-31 22:38:00,76.4,74.9,30.00,East,94,0.0,0.0,95,0.00,,,0.00,Wunderground v.1.15,2013-08-01 03:38:00,
2013-07-31 22:43:00,76.4,74.9,29.99,East,94,0.0,0.0,95,0.00,,,0.00,Wunderground v.1.15,2013-08-01 03:43:00,
2013-07-31 22:53:00,76.4,75.2,29.99,East,94,0.0,0.0,96,0.00,,,0.00,Wunderground v.1.15,2013-08-01 03:53:00,
2013-07-31 22:58:00,76.2,75.0,29.99,East,94,0.0,0.0,96,0.00,,,0.00,Wunderground v.1.15,2013-08-01 03:58:00,
2013-07-31 23:03:00,76.0,74.5,29.99,East,94,0.0,0.0,95,0.00,,,0.00,Wunderground v.1.15,2013-08-01 04:03:00,
2013-07-31 23:08:00,76.0,74.5,29.99,East,94,0.0,0.0,95,0.00,,,0.00,Wunderground v.1.15,2013-08-01 04:08:00,
2013-07-31 23:13:00,76.1,74.6,29.99,East,94,0.0,0.0,95,0.00,,,0.00,Wunderground v.1.15,2013-08-01 04:13:00,
2013-07-31 23:18:00,76.1,74.6,29.99,East,94,0.0,0.0,95,0.00,,,0.00,Wunderground v.1.15,2013-08-01 04:18:00,
2013-07-31 23:23:00,76.1,74.6,29.99,East,94,0.0,0.0,95,0.00,,,0.00,Wunderground v.1.15,2013-08-01 04:23:00,
2013-07-31 23:28:00,76.1,74.6,30.00,East,94,0.0,0.0,95,0.00,,,0.00,Wunderground v.1.15,2013-08-01 04:28:00,
2013-07-31 23:33:00,76.1,74.6,30.00,East,94,0.0,0.0,95,0.00,,,0.00,Wunderground v.1.15,2013-08-01 04:33:00,
2013-07-31 23:38:00,76.0,74.5,30.00,East,94,0.0,0.0,95,0.00,,,0.00,Wunderground v.1.15,2013-08-01 04:38:00,
2013-07-31 23:43:00,75.9,74.7,29.99,East,94,0.0,0.0,96,0.00,,,0.00,Wunderground v.1.15,2013-08-01 04:43:00,
2013-07-31 23:48:00,75.8,74.6,29.99,East,94,0.0,0.0,96,0.00,,,0.00,Wunderground v.1.15,2013-08-01 04:48:00,
2013-07-31 23:57:00,75.6,74.4,29.99,East,94,0.0,0.0,96,0.00,,,0.00,Wunderground v.1.15,2013-08-01 04:57:00,